Kissho — JD3124 — position and weather

sailwx.info

Track history (hours):
 
Tides and Currents Weather Stations Pressure Air Temp Water Temp Dewpoint Dewpoint Depression Visibility Wind Speed Wind Dir Waves Ship Positions

Kissho

Last reported at 2015-Mar-05 10:33 UTC. Time now 2015-Mar-05 18:46 UTC.
Position N 35°04' E 139°45'.

Length 30 m.

Type: Tug. MMSI: 431002115.

Date/timePositionNaut miles runAvg speedWind from/ knotsBaromVisibWave heightAir tempDewpointWater temp
2015-Mar-05 10:33N 35°04' E 139°45'10 9.5
2015-Mar-05 09:31N 35°13' E 139°47'8 7.2
2015-Mar-05 08:26N 35°21' E 139°49'1 0.0
2015-Mar-03 21:32N 35°20' E 139°50'3 0.2
2015-Mar-03 08:23N 35°22' E 139°48'5 5.2
2015-Mar-03 07:28N 35°19' E 139°44'  
2015-Feb-24 22:33N 35°03' E 139°44'9 9.5
2015-Feb-24 21:33N 35°12' E 139°46'9 8.9
2015-Feb-24 20:32N 35°21' E 139°43'9 9.2
2015-Feb-24 19:33N 35°29' E 139°48'  
Track history (hours):
 
Tides and Currents Weather Stations Pressure Air Temp Water Temp Dewpoint Dewpoint Depression Visibility Wind Speed Wind Dir Waves Ship Positions

Kissho

Last reported at 2015-Mar-05 10:33 UTC. Time now 2015-Mar-05 18:46 UTC.
Position N 35°04' E 139°45'.

Length 30 m.

Type: Tug. MMSI: 431002115.

Date/timePositionNaut miles runAvg speedWind from/ knotsBaromVisibWave heightAir tempDewpointWater temp
2015-Mar-05 10:33N 35°04' E 139°45'10 9.5
2015-Mar-05 09:31N 35°13' E 139°47'8 7.2
2015-Mar-05 08:26N 35°21' E 139°49'1 0.0
2015-Mar-03 21:32N 35°20' E 139°50'3 0.2
2015-Mar-03 08:23N 35°22' E 139°48'5 5.2
2015-Mar-03 07:28N 35°19' E 139°44'  
2015-Feb-24 22:33N 35°03' E 139°44'9 9.5
2015-Feb-24 21:33N 35°12' E 139°46'9 8.9
2015-Feb-24 20:32N 35°21' E 139°43'9 9.2
2015-Feb-24 19:33N 35°29' E 139°48'  

Dump ship's entire track history